Time;durP1;ratioP1;P1;durP2;ratioP2;P2;SDS_P1;SDS_P2;PMS_P1;PMS_P2;Temp;Humidity;BMP_temperature;BMP_pressure;BME280_temperature;BME280_humidity;BME280_pressure;Samples;Min_cycle;Max_cycle;Signal;HPM_P1;HPM_P2
2022/08/17 00:00:31;;;;;;;7.80;6.00;;;;;;;23.38;69.74;94580.84;5052565;28;20844;-78
2022/08/17 00:03:09;;;;;;;7.60;6.07;;;;;;;23.41;69.86;94580.41;5055330;28;20441;-78
2022/08/17 00:05:42;;;;;;;7.37;6.60;;;;;;;23.43;70.28;94577.53;5055533;28;20441;-78
2022/08/17 00:08:09;;;;;;;6.23;5.73;;;;;;;23.26;70.70;94576.41;5055490;28;20499;-78
2022/08/17 00:10:37;;;;;;;8.03;7.13;;;;;;;23.25;70.73;94588.97;5055495;28;20499;-78
2022/08/17 00:13:09;;;;;;;10.13;6.00;;;;;;;23.28;70.89;94579.69;5020145;28;20438;-77
2022/08/17 00:15:36;;;;;;;8.33;6.57;;;;;;;23.32;70.60;94583.56;5055100;28;20449;-78
2022/08/17 00:18:03;;;;;;;7.63;6.83;;;;;;;23.36;70.92;94577.56;5054890;28;20980;-77
2022/08/17 00:20:30;;;;;;;12.40;6.80;;;;;;;23.39;70.34;94578.97;5055342;28;20445;-77
2022/08/17 00:23:07;;;;;;;6.07;5.57;;;;;;;23.41;70.02;94583.09;5054912;28;20456;-78
2022/08/17 00:25:34;;;;;;;7.37;6.23;;;;;;;23.31;70.61;94584.59;5054910;28;20445;-78
2022/08/17 00:28:01;;;;;;;9.17;7.40;;;;;;;23.34;70.61;94586.84;5055007;28;20452;-78
2022/08/17 00:30:29;;;;;;;8.80;7.13;;;;;;;23.34;70.19;94579.63;5054953;28;20496;-78
2022/08/17 00:32:56;;;;;;;10.93;6.67;;;;;;;23.34;70.15;94584.16;5055028;28;20492;-78
2022/08/17 00:35:26;;;;;;;8.33;6.80;;;;;;;23.31;70.01;94588.09;5054928;28;20852;-78
2022/08/17 00:37:53;;;;;;;6.77;6.17;;;;;;;23.27;70.40;94573.50;5054597;28;20496;-77
2022/08/17 00:40:22;;;;;;;9.87;7.37;;;;;;;23.28;70.14;94580.50;5054844;28;20516;-77
2022/08/17 00:42:49;;;;;;;10.10;6.30;;;;;;;23.26;69.94;94571.88;5054858;28;20449;-77
2022/08/17 00:45:19;;;;;;;6.97;6.47;;;;;;;23.25;69.72;94567.56;5054564;28;20504;-78
2022/08/17 00:47:46;;;;;;;10.47;6.97;;;;;;;23.27;70.06;94560.13;5054763;28;20541;-78
2022/08/17 00:50:16;;;;;;;7.73;6.97;;;;;;;23.28;69.79;94563.63;5054588;28;20453;-78
2022/08/17 00:52:55;;;;;;;6.83;6.23;;;;;;;23.24;70.03;94559.75;5054229;28;20445;-78
2022/08/17 00:55:25;;;;;;;7.87;6.83;;;;;;;23.12;69.96;94557.72;5054799;28;20812;-79
2022/08/17 00:57:57;;;;;;;8.40;6.73;;;;;;;23.11;70.29;94563.31;5054436;28;20508;-78
2022/08/17 01:00:27;;;;;;;8.07;5.90;;;;;;;23.15;69.91;94572.56;5054539;28;20450;-78
2022/08/17 01:02:58;;;;;;;6.40;5.80;;;;;;;23.13;69.26;94558.53;5054338;28;20445;-78
2022/08/17 01:05:27;;;;;;;7.70;6.17;;;;;;;23.15;69.45;94556.50;5054354;28;20940;-78
2022/08/17 01:07:55;;;;;;;11.20;6.37;;;;;;;23.14;69.35;94562.91;5054399;28;20449;-78
2022/08/17 01:10:27;;;;;;;9.83;6.37;;;;;;;23.12;69.26;94563.09;5054346;28;20500;-77
2022/08/17 01:12:55;;;;;;;9.60;6.10;;;;;;;23.05;69.58;94566.84;5053492;28;20448;-78
2022/08/17 01:15:22;;;;;;;7.03;6.23;;;;;;;23.05;69.16;94564.97;5054401;28;20460;-78
2022/08/17 01:17:50;;;;;;;8.17;6.27;;;;;;;23.08;69.28;94563.72;5053689;28;20493;-78
2022/08/17 01:20:17;;;;;;;8.17;6.07;;;;;;;23.12;69.20;94571.13;5054135;28;20453;-79
2022/08/17 01:22:45;;;;;;;8.40;6.73;;;;;;;23.08;69.21;94572.59;5054023;28;20869;-78
2022/08/17 01:25:22;;;;;;;6.50;5.77;;;;;;;23.01;68.93;94562.97;5053891;28;20442;-78
2022/08/17 01:27:49;;;;;;;9.30;5.67;;;;;;;22.98;69.33;94566.06;5053915;28;20441;-78
2022/08/17 01:30:18;;;;;;;7.23;5.80;;;;;;;22.92;69.19;94569.59;5053914;28;20449;-78
2022/08/17 01:32:44;;;;;;;6.80;6.17;;;;;;;22.95;69.63;94567.31;5053872;28;20565;-78
2022/08/17 01:35:12;;;;;;;8.67;5.97;;;;;;;22.93;69.53;94566.72;5053955;28;20483;-78
2022/08/17 01:37:41;;;;;;;12.17;7.43;;;;;;;22.91;69.08;94552.72;5053688;28;20492;-78
2022/08/17 01:40:18;;;;;;;10.97;6.73;;;;;;;22.92;68.91;94559.72;5053682;28;20446;-78
2022/08/17 01:42:48;;;;;;;6.87;5.67;;;;;;;22.86;68.95;94557.91;5053919;28;20472;-78
2022/08/17 01:45:21;;;;;;;9.77;6.20;;;;;;;22.85;68.96;94559.75;5053637;28;20505;-78
2022/08/17 01:47:49;;;;;;;8.90;6.27;;;;;;;22.77;69.03;94549.25;5053471;28;20541;-78
2022/08/17 01:50:22;;;;;;;9.00;6.13;;;;;;;22.75;69.05;94556.66;4985864;28;20450;-77
2022/08/17 01:52:54;;;;;;;8.73;6.20;;;;;;;22.73;69.31;94553.38;5053532;28;20446;-78
2022/08/17 01:55:28;;;;;;;9.23;6.47;;;;;;;22.63;69.23;94552.22;5053354;28;20541;-78
2022/08/17 01:57:55;;;;;;;6.97;6.37;;;;;;;22.67;69.09;94561.44;5053165;28;20516;-79
2022/08/17 02:00:22;;;;;;;7.20;6.60;;;;;;;22.69;69.72;94554.84;5053373;28;20445;-79
2022/08/17 02:02:48;;;;;;;6.87;6.30;;;;;;;22.71;69.54;94560.81;5053413;28;20991;-78
2022/08/17 02:05:17;;;;;;;8.70;5.70;;;;;;;22.66;69.26;94568.66;5053344;28;20448;-78
2022/08/17 02:07:44;;;;;;;6.63;5.97;;;;;;;22.41;70.08;94573.06;5034543;28;20430;-79
2022/08/17 02:10:11;;;;;;;7.23;5.87;;;;;;;22.16;71.51;94573.75;5017809;28;20445;-78
2022/08/17 02:12:39;;;;;;;6.30;5.47;;;;;;;22.18;71.95;94577.03;5053088;28;20449;-78
2022/08/17 02:15:08;;;;;;;6.20;5.60;;;;;;;22.19;72.29;94572.50;5052808;28;20457;-78
2022/08/17 02:17:35;;;;;;;8.43;7.00;;;;;;;22.24;72.28;94575.34;5052909;28;20484;-78
2022/08/17 02:20:03;;;;;;;15.03;6.53;;;;;;;22.22;72.27;94578.25;5052751;28;20948;-78
2022/08/17 02:22:30;;;;;;;8.90;6.63;;;;;;;22.27;72.50;94574.97;5052853;28;20489;-78
2022/08/17 02:24:57;;;;;;;14.00;7.30;;;;;;;22.33;72.03;94584.00;5033964;28;20441;-78
2022/08/17 02:27:24;;;;;;;8.23;7.43;;;;;;;22.28;71.50;94571.25;5052731;28;20450;-77
2022/08/17 02:29:52;;;;;;;13.67;6.23;;;;;;;22.31;71.98;94572.69;5052854;28;20438;-78
2022/08/17 02:32:21;;;;;;;10.63;6.07;;;;;;;22.29;71.83;94577.44;5052702;28;20446;-78
2022/08/17 02:34:49;;;;;;;7.33;6.00;;;;;;;22.31;71.46;94580.72;5018255;28;20921;-78
2022/08/17 02:37:17;;;;;;;7.23;6.40;;;;;;;22.34;71.38;94580.28;5052498;28;21055;-79
2022/08/17 02:39:44;;;;;;;7.17;5.60;;;;;;;22.38;70.95;94576.16;5052895;28;20457;-78
2022/08/17 02:42:12;;;;;;;9.90;6.37;;;;;;;22.35;70.98;94565.88;5052294;28;20511;-78
2022/08/17 02:44:39;;;;;;;7.20;6.60;;;;;;;22.38;70.70;94565.47;5052562;28;20433;-79
2022/08/17 02:47:09;;;;;;;7.03;6.33;;;;;;;22.31;70.47;94575.38;5052327;28;20968;-78
2022/08/17 02:49:36;;;;;;;6.73;6.03;;;;;;;22.33;70.05;94579.47;5052243;28;20870;-78
2022/08/17 02:52:04;;;;;;;8.53;7.03;;;;;;;22.25;69.29;94560.97;5052191;28;20446;-79
2022/08/17 02:54:31;;;;;;;8.87;5.40;;;;;;;22.16;69.51;94578.25;5052270;28;20446;-77
2022/08/17 02:56:58;;;;;;;8.13;6.43;;;;;;;22.07;69.59;94577.66;5052349;28;20452;-78
2022/08/17 02:59:25;;;;;;;7.43;6.20;;;;;;;21.99;70.66;94577.03;5052149;28;20904;-78
2022/08/17 03:01:52;;;;;;;7.07;5.80;;;;;;;21.93;71.09;94578.66;5052201;28;20449;-78
2022/08/17 03:04:20;;;;;;;9.23;6.20;;;;;;;21.92;71.22;94571.69;5052121;28;20810;-79
2022/08/17 03:06:47;;;;;;;5.80;5.30;;;;;;;21.95;71.09;94581.97;5052435;28;20442;-78
2022/08/17 03:09:15;;;;;;;6.83;6.13;;;;;;;21.97;71.15;94579.91;5052010;28;20442;-80
2022/08/17 03:11:42;;;;;;;7.00;5.70;;;;;;;21.98;70.90;94581.56;5052201;28;20788;-78
2022/08/17 03:14:09;;;;;;;6.27;5.77;;;;;;;22.05;70.65;94587.75;5052232;28;20449;-78
2022/08/17 03:16:37;;;;;;;6.97;6.20;;;;;;;22.09;70.23;94583.63;5052043;28;20457;-78
2022/08/17 03:19:06;;;;;;;8.83;5.87;;;;;;;22.13;70.09;94590.19;5051908;28;20485;-78
2022/08/17 03:21:35;;;;;;;8.83;6.23;;;;;;;22.10;70.28;94593.28;5051784;28;20438;-78
2022/08/17 03:24:02;;;;;;;8.20;6.13;;;;;;;22.08;69.86;94592.69;5033322;28;20503;-77
2022/08/17 03:26:29;;;;;;;7.60;6.50;;;;;;;22.02;70.59;94601.50;5051905;28;20450;-78
2022/08/17 03:28:55;;;;;;;7.60;6.40;;;;;;;21.93;71.65;94595.53;5051935;28;20817;-78
2022/08/17 03:31:22;;;;;;;13.57;7.10;;;;;;;21.94;71.77;94596.34;5052054;28;20473;-77
2022/08/17 03:33:49;;;;;;;10.83;6.73;;;;;;;21.99;72.27;94593.06;5051946;28;20453;-77
2022/08/17 03:36:16;;;;;;;7.77;6.97;;;;;;;21.92;71.72;94585.03;5054273;28;20440;-77
2022/08/17 03:38:44;;;;;;;13.23;8.00;;;;;;;21.99;71.94;94601.09;5055933;28;20491;-78
2022/08/17 03:41:12;;;;;;;10.53;7.33;;;;;;;21.91;72.02;94591.41;5055853;28;20514;-78
2022/08/17 03:43:39;;;;;;;10.67;7.50;;;;;;;21.83;72.07;94603.16;5055725;28;20441;-79
2022/08/17 03:57:08;;;;;;;12.07;7.30;;;;;;;21.43;75.32;94621.00;5055670;28;20432;-78
2022/08/17 03:59:36;;;;;;;12.10;8.07;;;;;;;21.46;74.48;94609.91;5055493;28;20488;-78
2022/08/17 04:02:07;;;;;;;9.27;8.17;;;;;;;21.46;74.33;94625.94;5036731;28;20444;-79
2022/08/17 04:04:35;;;;;;;10.47;8.40;;;;;;;21.37;75.09;94623.63;5055310;28;20481;-78
2022/08/17 04:07:02;;;;;;;9.83;7.77;;;;;;;21.37;75.18;94619.13;5036838;28;20452;-79
2022/08/17 04:09:30;;;;;;;8.73;7.60;;;;;;;21.56;75.24;94621.00;5055550;28;20482;-79
2022/08/17 04:11:57;;;;;;;14.73;7.67;;;;;;;21.72;74.63;94625.16;5055691;28;20852;-79
2022/08/17 04:14:24;;;;;;;9.90;7.20;;;;;;;21.93;74.23;94627.59;5036488;28;20971;-78
2022/08/17 04:16:51;;;;;;;15.13;7.23;;;;;;;22.35;73.56;94624.72;5055582;28;20438;-79
2022/08/17 04:19:18;;;;;;;7.20;6.50;;;;;;;22.98;70.94;94631.13;5055399;28;20480;-79
2022/08/17 04:21:45;;;;;;;9.30;6.97;;;;;;;23.56;66.79;94631.03;5036327;28;20840;-79
2022/08/17 04:24:13;;;;;;;7.00;6.30;;;;;;;24.09;64.49;94631.44;5055464;28;20472;-78
2022/08/17 04:26:41;;;;;;;10.20;6.43;;;;;;;24.62;63.43;94630.97;5055035;28;20450;-78
2022/08/17 04:29:08;;;;;;;17.60;7.53;;;;;;;25.11;62.16;94631.84;5055035;28;20449;-78
2022/08/17 04:31:35;;;;;;;12.40;7.03;;;;;;;25.58;60.33;94635.56;5054905;28;20452;-79
2022/08/17 04:34:01;;;;;;;7.10;5.43;;;;;;;26.04;58.24;94635.94;5055265;28;20445;-78
2022/08/17 04:36:28;;;;;;;8.43;7.53;;;;;;;26.13;56.87;94639.94;5055072;28;20442;-79
2022/08/17 04:38:55;;;;;;;8.33;6.70;;;;;;;26.39;57.38;94644.91;5054578;28;21007;-78
2022/08/17 04:44:07;;;;;;;8.23;6.10;;;;;;;27.07;54.57;94638.06;5054610;28;20435;-79
2022/08/17 04:46:36;;;;;;;7.07;6.37;;;;;;;27.34;54.81;94644.53;5034933;28;20442;-79
2022/08/17 04:49:05;;;;;;;10.33;6.70;;;;;;;27.51;52.70;94646.47;5054367;28;20438;-80
2022/08/17 04:51:34;;;;;;;8.10;7.17;;;;;;;27.72;53.24;94654.69;5054569;28;20453;-79
2022/08/17 04:54:04;;;;;;;8.93;8.00;;;;;;;27.89;53.10;94649.34;5054523;28;20442;-79
2022/08/17 04:56:31;;;;;;;11.63;8.40;;;;;;;28.13;53.47;94655.44;5054351;28;20808;-80
2022/08/17 04:59:00;;;;;;;9.00;8.13;;;;;;;28.23;51.97;94654.78;5054407;28;20485;-80
2022/08/17 05:01:31;;;;;;;8.53;7.40;;;;;;;28.34;52.55;94667.41;5054503;28;20442;-79
2022/08/17 05:04:00;;;;;;;11.30;8.70;;;;;;;28.33;52.19;94666.56;5054254;28;20453;-79
2022/08/17 05:06:28;;;;;;;12.23;7.63;;;;;;;28.51;51.73;94670.91;5054270;28;20936;-80
2022/08/17 05:08:55;;;;;;;11.20;8.13;;;;;;;28.50;51.24;94657.66;5035577;28;20460;-79
2022/08/17 05:11:24;;;;;;;8.40;7.70;;;;;;;28.67;51.01;94666.56;5054478;28;20434;-81
2022/08/17 05:13:51;;;;;;;9.40;8.30;;;;;;;28.67;50.14;94661.16;5054616;28;20449;-80
2022/08/17 05:16:19;;;;;;;11.83;8.00;;;;;;;28.37;50.28;94661.53;5054221;28;20449;-79
2022/08/17 05:18:48;;;;;;;10.57;9.03;;;;;;;28.16;51.42;94660.34;5053970;28;20481;-79
2022/08/17 05:21:15;;;;;;;9.97;9.03;;;;;;;28.36;51.68;94666.09;5054236;28;20461;-78
2022/08/17 05:23:43;;;;;;;10.63;8.60;;;;;;;28.67;50.72;94661.97;5054011;28;20857;-79
2022/08/17 05:26:16;;;;;;;13.20;7.23;;;;;;;29.00;49.48;94660.31;5053867;28;20448;-80
2022/08/17 05:28:43;;;;;;;12.93;8.60;;;;;;;28.97;49.00;94664.31;5035058;28;20484;-79
2022/08/17 05:31:10;;;;;;;11.17;8.03;;;;;;;28.93;49.01;94665.91;5054004;28;20476;-79
2022/08/17 05:33:40;;;;;;;10.77;7.57;;;;;;;28.89;50.19;94667.44;5053885;28;20465;-79
2022/08/17 05:36:10;;;;;;;16.30;7.97;;;;;;;28.93;50.60;94668.59;5053702;28;20450;-79
2022/08/17 05:38:37;;;;;;;9.27;7.70;;;;;;;29.01;49.83;94670.03;5053492;28;20492;-78
2022/08/17 05:41:08;;;;;;;13.23;7.30;;;;;;;29.19;49.44;94679.72;5053581;28;20453;-79
2022/08/17 05:43:37;;;;;;;10.63;8.10;;;;;;;29.43;48.89;94669.47;5053950;28;20441;-80
2022/08/17 05:46:07;;;;;;;8.10;7.30;;;;;;;29.69;48.90;94673.31;5053857;28;20442;-79
2022/08/17 05:48:39;;;;;;;10.60;7.57;;;;;;;29.70;47.74;94664.94;5053408;28;20846;-79
2022/08/17 05:51:30;;;;;;;13.93;7.43;;;;;;;29.46;48.74;94675.22;5053727;28;20444;-79
2022/08/17 05:54:07;;;;;;;18.03;7.77;;;;;;;28.56;50.52;94670.97;5053572;28;20454;-78
2022/08/17 05:56:51;;;;;;;11.37;8.07;;;;;;;28.91;50.51;94662.63;5053346;28;20438;-79
2022/08/17 05:59:35;;;;;;;8.50;7.07;;;;;;;29.24;50.13;94674.41;5052911;28;20486;-79
2022/08/17 06:02:09;;;;;;;13.63;8.70;;;;;;;29.18;49.18;94669.97;5053571;28;20480;-79
2022/08/17 06:04:50;;;;;;;12.10;8.60;;;;;;;29.04;49.66;94668.72;5019581;28;20437;-80
2022/08/17 06:07:22;;;;;;;9.47;8.57;;;;;;;28.77;50.58;94671.28;5053292;28;20472;-81
2022/08/17 06:09:59;;;;;;;13.00;8.50;;;;;;;29.01;50.76;94666.53;5053227;28;20952;-79
2022/08/17 06:12:52;;;;;;;9.80;7.17;;;;;;;29.21;50.53;94666.81;5053358;28;20849;-79
2022/08/17 06:15:30;;;;;;;10.30;8.33;;;;;;;29.33;49.67;94663.97;5053112;28;20453;-80
2022/08/17 06:18:51;;;;;;;8.33;6.73;;;;;;;29.49;49.69;94653.13;5052859;28;20449;-79
2022/08/17 06:21:19;;;;;;;15.27;7.20;;;;;;;29.52;49.53;94668.81;4996250;28;20992;-79
2022/08/17 06:23:53;;;;;;;9.80;7.40;;;;;;;29.57;48.63;94666.19;5010922;28;20454;-77
2022/08/17 06:26:24;;;;;;;6.80;6.20;;;;;;;29.97;47.80;94670.38;5011010;28;20447;-79
2022/08/17 06:28:54;;;;;;;7.40;6.57;;;;;;;30.16;46.77;94663.56;5010855;28;20455;-78
2022/08/17 06:31:27;;;;;;;7.23;6.53;;;;;;;30.27;45.83;94666.34;5010581;28;20871;-79
2022/08/17 06:33:56;;;;;;;9.60;6.73;;;;;;;30.40;47.25;94663.22;4964259;28;20448;-80
2022/08/17 06:36:41;;;;;;;9.80;6.27;;;;;;;30.85;45.01;94667.34;5010551;28;20799;-79
2022/08/17 06:39:25;;;;;;;10.03;6.60;;;;;;;30.93;43.14;94661.41;5010503;28;20493;-79
2022/08/17 06:42:04;;;;;;;7.80;5.93;;;;;;;30.72;43.31;94664.00;5010546;28;20461;-79
2022/08/17 06:44:40;;;;;;;10.97;7.30;;;;;;;30.62;44.88;94665.81;5010655;28;20447;-80
2022/08/17 06:47:12;;;;;;;8.90;6.67;;;;;;;30.63;44.19;94673.69;4963598;28;20933;-79
2022/08/17 06:49:46;;;;;;;12.60;7.20;;;;;;;30.88;43.93;94669.50;4977547;28;20530;-79
2022/08/17 06:52:19;;;;;;;11.30;7.17;;;;;;;31.18;42.88;94666.19;5010331;28;20443;-80
2022/08/17 06:54:56;;;;;;;11.60;6.40;;;;;;;31.41;43.15;94658.44;5010319;28;20443;-79
2022/08/17 06:57:27;;;;;;;13.83;7.00;;;;;;;31.73;42.10;94665.63;5015608;28;20481;-79
2022/08/17 06:59:59;;;;;;;9.77;7.77;;;;;;;31.82;42.77;94657.78;5052456;28;20873;-80
2022/08/17 07:02:40;;;;;;;7.57;6.87;;;;;;;31.79;42.54;94659.13;5051978;28;20442;-80
2022/08/17 07:05:08;;;;;;;7.13;6.37;;;;;;;31.70;42.62;94660.69;5052201;28;20468;-78
2022/08/17 07:10:27;;;;;;;18.40;8.60;;;;;;;31.76;44.31;94659.66;5051251;28;20472;-78
2022/08/17 07:12:58;;;;;;;11.33;7.70;;;;;;;31.79;42.80;94656.41;5050989;28;20441;-80
2022/08/17 07:15:41;;;;;;;16.53;8.53;;;;;;;31.45;42.21;94658.72;5046940;28;20446;-79
2022/08/17 07:18:08;;;;;;;11.20;7.53;;;;;;;31.59;42.79;94667.19;5051881;28;20453;-79
2022/08/17 07:20:36;;;;;;;7.27;6.57;;;;;;;31.53;42.27;94654.69;5051714;28;20444;-80
2022/08/17 07:23:13;;;;;;;9.07;7.30;;;;;;;31.76;42.34;94659.66;5033095;28;20448;-79
2022/08/17 07:25:41;;;;;;;9.77;6.40;;;;;;;31.90;42.03;94657.25;5052012;28;20442;-80
2022/08/17 07:28:08;;;;;;;13.73;7.10;;;;;;;32.07;41.47;94649.66;5051970;28;20441;-79
2022/08/17 07:30:39;;;;;;;10.50;7.90;;;;;;;32.25;41.23;94656.47;5051760;28;20453;-79
2022/08/17 07:33:10;;;;;;;14.80;7.87;;;;;;;32.31;40.94;94658.94;5052556;28;20500;-79
2022/08/17 07:35:39;;;;;;;8.60;6.67;;;;;;;32.51;41.07;94655.44;5052165;28;20446;-77
2022/08/17 07:38:12;;;;;;;8.47;6.67;;;;;;;32.64;40.06;94656.75;5051748;28;20442;-79
2022/08/17 07:40:42;;;;;;;12.87;6.67;;;;;;;32.88;40.02;94646.97;5051889;28;20450;-79
2022/08/17 07:43:25;;;;;;;9.53;8.10;;;;;;;32.68;40.67;94652.44;5052252;28;20511;-78
2022/08/17 07:48:48;;;;;;;15.73;7.20;;;;;;;32.20;41.26;94651.88;5051632;28;20576;-79
2022/08/17 07:51:19;;;;;;;14.50;8.03;;;;;;;31.96;41.26;94640.69;5017526;28;20442;-79
2022/08/17 07:53:46;;;;;;;12.17;7.33;;;;;;;31.77;41.24;94638.75;5051584;28;20453;-79
2022/08/17 07:56:38;;;;;;;7.70;6.93;;;;;;;31.78;41.41;94637.69;5051509;28;20458;-79
2022/08/17 07:59:14;;;;;;;11.63;8.07;;;;;;;31.47;41.72;94639.47;4989855;28;20499;-78
2022/08/17 08:01:48;;;;;;;12.93;7.33;;;;;;;31.49;41.79;94642.72;4990012;28;20499;-78
2022/08/17 08:04:39;;;;;;;7.53;6.83;;;;;;;31.34;40.86;94636.19;4989845;28;20436;-79
2022/08/17 08:07:11;;;;;;;8.03;6.70;;;;;;;31.40;40.70;94637.81;4951125;29;20446;-79
2022/08/17 08:09:42;;;;;;;10.50;7.10;;;;;;;31.14;40.70;94636.06;4951225;29;20449;-79
2022/08/17 08:12:33;;;;;;;6.80;6.30;;;;;;;31.29;41.54;94638.06;4951199;29;20941;-78
2022/08/17 08:15:04;;;;;;;10.13;7.10;;;;;;;31.24;40.77;94636.16;4875740;29;20497;-79
2022/08/17 08:17:35;;;;;;;9.10;8.20;;;;;;;31.00;39.72;94633.00;4829425;29;20450;-79
2022/08/17 08:20:08;;;;;;;9.43;8.53;;;;;;;31.11;40.89;94631.16;4875844;29;20485;-79
2022/08/17 08:22:46;;;;;;;7.67;6.93;;;;;;;31.32;40.92;94632.09;4878231;29;20545;-78
2022/08/17 08:25:23;;;;;;;12.00;7.20;;;;;;;31.50;39.77;94630.78;4878860;29;20901;-78
2022/08/17 08:28:01;;;;;;;12.53;8.47;;;;;;;31.36;40.44;94625.88;4879029;29;20540;-78
2022/08/17 08:30:31;;;;;;;11.80;7.77;;;;;;;31.35;40.66;94626.97;4878714;29;20809;-79
2022/08/17 08:33:17;;;;;;;12.10;7.67;;;;;;;31.38;40.52;94623.72;4878764;29;20450;-78
2022/08/17 08:35:54;;;;;;;8.10;7.30;;;;;;;31.54;40.79;94623.78;4899977;29;20447;-79
2022/08/17 08:38:30;;;;;;;10.50;7.90;;;;;;;31.58;40.11;94619.44;4887799;29;20454;-78
2022/08/17 08:41:19;;;;;;;7.77;7.03;;;;;;;31.64;39.65;94618.38;4935251;29;20842;-81
2022/08/17 08:43:55;;;;;;;12.87;6.60;;;;;;;31.19;40.51;94621.72;4912037;28;20452;-79
2022/08/17 08:46:30;;;;;;;11.77;7.10;;;;;;;31.18;40.14;94618.19;4993119;28;20455;-79
2022/08/17 08:49:21;;;;;;;9.00;8.07;;;;;;;31.19;41.19;94610.88;4992974;28;20845;-79
2022/08/17 08:51:54;;;;;;;8.80;8.00;;;;;;;31.26;39.89;94606.88;5019589;28;20456;-78
2022/08/17 08:54:35;;;;;;;14.00;10.93;;;;;;;31.27;40.26;94613.09;5054687;28;20451;-77
2022/08/17 08:57:12;;;;;;;10.40;6.50;;;;;;;31.19;40.17;94608.97;5054799;28;20433;-78
2022/08/17 08:59:55;;;;;;;7.03;6.33;;;;;;;30.87;39.65;94605.56;5054503;28;20489;-79
2022/08/17 09:02:40;;;;;;;6.43;5.80;;;;;;;30.80;39.63;94603.91;5054535;28;20480;-79
2022/08/17 09:05:19;;;;;;;6.90;6.20;;;;;;;30.95;40.02;94605.91;5054654;28;20445;-79
2022/08/17 09:07:57;;;;;;;9.00;5.90;;;;;;;31.14;38.92;94603.50;5054622;28;20446;-78
2022/08/17 09:10:29;;;;;;;6.80;6.17;;;;;;;31.09;39.63;94598.06;5054296;28;20453;-78
2022/08/17 09:13:06;;;;;;;7.07;6.37;;;;;;;31.10;39.50;94605.13;5054180;28;20450;-79
2022/08/17 09:15:41;;;;;;;6.37;5.70;;;;;;;31.20;40.55;94602.47;5054519;28;20620;-78
2022/08/17 09:18:16;;;;;;;5.70;5.20;;;;;;;31.16;39.74;94600.53;5054706;28;20437;-78
2022/08/17 09:20:48;;;;;;;9.60;5.30;;;;;;;31.08;39.74;94599.16;5054312;28;20491;-79
2022/08/17 09:23:25;;;;;;;6.60;5.90;;;;;;;31.14;39.44;94604.34;5054273;28;20454;-79
2022/08/17 09:25:59;;;;;;;7.00;6.03;;;;;;;31.06;40.30;94604.84;5054178;28;20932;-79
2022/08/17 09:28:30;;;;;;;6.57;5.90;;;;;;;31.09;40.37;94595.38;5054334;28;20799;-79
2022/08/17 09:31:06;;;;;;;6.73;6.07;;;;;;;31.13;40.14;94601.88;5054277;28;20457;-80
2022/08/17 09:33:36;;;;;;;9.47;6.00;;;;;;;31.24;39.83;94592.75;5053121;28;20442;-79
2022/08/17 09:36:09;;;;;;;8.23;6.60;;;;;;;31.37;38.68;94592.25;5053505;28;20998;-81
2022/08/17 09:38:45;;;;;;;6.03;5.50;;;;;;;31.27;38.35;94597.66;5053500;28;20503;-78
2022/08/17 09:41:18;;;;;;;6.30;5.80;;;;;;;31.32;37.59;94600.38;5053919;28;20962;-78
2022/08/17 09:43:53;;;;;;;10.13;5.83;;;;;;;31.51;38.27;94597.16;5019260;28;20449;-79
2022/08/17 09:46:28;;;;;;;6.83;4.70;;;;;;;31.61;36.84;94597.19;5034946;28;20448;-79
2022/08/17 09:49:02;;;;;;;6.90;6.17;;;;;;;31.69;37.20;94600.19;5053521;28;20528;-79
2022/08/17 09:51:33;;;;;;;9.60;6.73;;;;;;;31.63;36.86;94593.13;5053272;28;20437;-78
2022/08/17 09:54:00;;;;;;;6.80;5.83;;;;;;;31.68;37.38;94595.84;5053460;28;20829;-79
2022/08/17 09:56:42;;;;;;;13.03;7.47;;;;;;;31.72;36.42;94590.72;5053683;28;20449;-79
2022/08/17 09:59:27;;;;;;;17.47;10.87;;;;;;;31.80;36.17;94589.38;5053110;28;20488;-79
2022/08/17 10:02:09;;;;;;;14.30;8.20;;;;;;;31.69;35.21;94588.53;5053488;28;20445;-79
2022/08/17 10:04:42;;;;;;;11.63;7.63;;;;;;;31.58;35.22;94584.97;5034501;28;20449;-79
2022/08/17 10:07:18;;;;;;;18.77;10.87;;;;;;;31.53;36.87;94586.88;5053260;28;20959;-79
2022/08/17 10:09:59;;;;;;;10.23;5.50;;;;;;;31.62;36.96;94577.13;5053445;28;20954;-79
2022/08/17 10:12:38;;;;;;;8.40;6.60;;;;;;;31.56;37.12;94579.00;5053200;28;20450;-79
2022/08/17 10:15:16;;;;;;;9.97;8.07;;;;;;;31.49;34.90;94573.00;5053095;28;20457;-79
2022/08/17 10:18:02;;;;;;;7.10;6.40;;;;;;;31.17;37.13;94575.09;5052952;28;20814;-79
2022/08/17 10:20:32;;;;;;;12.50;7.73;;;;;;;31.05;37.05;94575.31;5053272;28;20492;-79
2022/08/17 10:28:40;;;;;;;9.07;6.70;;;;;;;31.01;35.79;94556.03;5052944;28;20429;-80
2022/08/17 10:31:10;;;;;;;13.00;6.10;;;;;;;30.96;37.32;94563.34;5052784;28;20686;-80
2022/08/17 10:33:49;;;;;;;10.70;6.27;;;;;;;30.92;35.91;94567.63;5052728;28;20944;-79
2022/08/17 10:36:24;;;;;;;6.67;5.53;;;;;;;30.86;35.57;94560.56;5052865;28;20446;-79
2022/08/17 10:39:03;;;;;;;7.57;5.80;;;;;;;30.80;34.77;94555.13;5052831;28;20456;-79
2022/08/17 10:41:39;;;;;;;6.93;4.63;;;;;;;30.69;34.84;94558.06;5052607;28;20580;-80
2022/08/17 10:44:12;;;;;;;5.27;4.77;;;;;;;30.70;36.70;94559.69;5052611;28;20441;-80
2022/08/17 10:46:56;;;;;;;8.80;5.97;;;;;;;30.74;36.87;94556.19;5052420;28;20446;-79
2022/08/17 10:49:28;;;;;;;7.47;5.20;;;;;;;30.63;36.87;94543.66;5052657;28;20441;-79
2022/08/17 10:51:56;;;;;;;7.00;6.37;;;;;;;30.85;37.47;94546.22;5052554;28;20546;-79
2022/08/17 10:54:46;;;;;;;5.10;4.60;;;;;;;30.99;37.44;94560.09;5052354;28;20446;-79
2022/08/17 10:57:37;;;;;;;18.60;5.00;;;;;;;31.05;34.75;94553.63;5052228;28;20499;-79
2022/08/17 11:00:21;;;;;;;10.37;5.00;;;;;;;31.14;36.02;94546.59;5052323;28;20489;-79
2022/08/17 11:02:50;;;;;;;6.93;6.33;;;;;;;31.28;35.43;94539.63;5010362;28;20478;-79
2022/08/17 11:05:31;;;;;;;7.47;6.23;;;;;;;31.39;36.68;94538.56;5010225;28;20535;-78
2022/08/17 11:08:37;;;;;;;9.23;5.80;;;;;;;31.55;35.21;94538.59;5010392;28;20439;-78
2022/08/17 11:11:42;;;;;;;6.77;4.87;;;;;;;31.50;34.59;94539.38;4951745;29;20456;-80
2022/08/17 11:14:25;;;;;;;6.00;5.40;;;;;;;31.40;34.97;94542.88;4951681;29;20442;-80
2022/08/17 11:17:15;;;;;;;5.63;4.93;;;;;;;31.38;35.03;94545.06;4951762;29;20446;-79
2022/08/17 11:20:09;;;;;;;7.60;4.70;;;;;;;31.49;34.99;94536.94;4951832;29;20482;-79
2022/08/17 11:23:11;;;;;;;7.80;5.33;;;;;;;31.46;34.22;94534.75;4951879;29;20508;-79
2022/08/17 11:25:40;;;;;;;6.10;5.10;;;;;;;31.43;35.14;94536.94;4951676;29;20876;-79
2022/08/17 11:28:14;;;;;;;7.70;5.53;;;;;;;31.42;34.41;94540.72;4951569;29;20443;-79
2022/08/17 11:30:45;;;;;;;6.00;4.80;;;;;;;31.52;34.38;94539.13;4951522;29;20996;-79
2022/08/17 11:34:04;;;;;;;5.83;4.93;;;;;;;31.54;34.00;94534.25;4951457;29;20485;-80
2022/08/17 11:36:48;;;;;;;9.10;5.70;;;;;;;31.46;33.16;94538.28;4951581;29;20541;-80
2022/08/17 11:39:34;;;;;;;9.17;5.00;;;;;;;31.47;33.63;94547.25;4956964;28;20445;-80
2022/08/17 11:42:05;;;;;;;5.60;5.20;;;;;;;31.48;33.55;94533.41;4941906;28;20467;-79
2022/08/17 11:44:45;;;;;;;7.60;5.30;;;;;;;31.60;34.72;94552.16;4990257;28;20447;-79
2022/08/17 11:53:53;;;;;;;6.37;5.77;;;;;;;31.80;36.60;94552.19;4990213;28;20545;-79
2022/08/17 11:56:34;;;;;;;11.40;6.10;;;;;;;31.66;37.61;94551.06;4989234;28;20453;-78
2022/08/17 11:59:01;;;;;;;7.63;6.93;;;;;;;31.11;38.64;94547.13;4994113;28;20468;-78
2022/08/17 12:01:54;;;;;;;7.77;6.97;;;;;;;30.89;39.67;94568.16;4994002;28;20884;-80
2022/08/17 12:04:27;;;;;;;9.07;7.50;;;;;;;30.69;40.94;94569.72;4993842;28;20463;-81
2022/08/17 12:06:58;;;;;;;9.53;6.87;;;;;;;30.27;41.58;94577.00;4993824;28;20544;-79
2022/08/17 12:09:30;;;;;;;10.50;6.60;;;;;;;30.04;42.73;94578.97;4994087;28;20856;-79
2022/08/17 12:12:03;;;;;;;6.77;6.17;;;;;;;29.76;43.67;94576.53;4994147;28;20456;-80
2022/08/17 12:14:34;;;;;;;9.83;6.80;;;;;;;29.68;44.17;94585.94;4993656;28;21015;-79
2022/08/17 12:17:04;;;;;;;9.07;7.70;;;;;;;29.64;43.93;94578.59;4993609;28;20987;-78
2022/08/17 12:19:32;;;;;;;8.07;7.27;;;;;;;29.64;45.50;94579.41;4961070;28;20447;-79
2022/08/17 12:22:05;;;;;;;8.30;6.50;;;;;;;29.53;45.78;94567.69;4993379;28;20883;-78
2022/08/17 12:24:51;;;;;;;10.10;6.60;;;;;;;29.59;46.84;94576.69;4993277;28;20440;-78
2022/08/17 12:27:25;;;;;;;7.70;6.83;;;;;;;29.70;45.79;94570.28;4945161;28;20467;-78
2022/08/17 12:29:53;;;;;;;7.73;6.83;;;;;;;29.71;44.60;94562.97;5019083;28;20920;-79